Terminal Aerodrome Forecast
Issued by NWS

Home | Current Version | Previous Version | Text Only | Print | Product List | Glossary On
Versions: 1 2 3 4 5 6 7 8 9 10 11 12 13 14 15 16 17 18 19 20 21 22 23 24 25 26 27 28 29 30 31 32
000
FTUS41 KRNK 301728
TAFBCB
TAF
KBCB 301728Z 3018/3118 29005KT P6SM SCT050
     FM310200 00000KT P6SM SCT250
     FM310900 00000KT 3SM BR SCT012 SCT250
      TEMPO 3110/3112 1SM BR BKN008
     FM311400 VRB04KT P6SM SCT030 SCT120=

USA.gov is the U.S. government's official web portal to all federal, state and local government web resources and services.